createdAt,value
2023-04-16T00:02:20.107Z,8.99
2023-04-16T00:07:21.853Z,8.95
2023-04-16T00:12:24.910Z,8.77
2023-04-16T00:17:26.591Z,8.84
2023-04-16T00:22:28.246Z,8.79
2023-04-16T00:27:33.587Z,8.93
2023-04-16T00:32:35.474Z,8.91
2023-04-16T00:37:37.169Z,8.97
2023-04-16T00:42:40.263Z,8.95
2023-04-16T00:47:42.502Z,8.75
2023-04-16T00:52:46.640Z,8.65
2023-04-16T00:57:49.695Z,8.93
2023-04-16T01:02:51.660Z,8.79
2023-04-16T01:07:53.456Z,8.82
2023-04-16T01:12:56.503Z,8.80
2023-04-16T01:17:58.182Z,8.91
2023-04-16T01:23:01.211Z,8.75
2023-04-16T01:28:02.940Z,8.80
2023-04-16T01:33:04.932Z,8.71
2023-04-16T01:38:09.208Z,8.90
2023-04-16T01:43:10.879Z,8.64
2023-04-16T01:48:13.148Z,8.66
2023-04-16T01:53:16.174Z,8.74
2023-04-16T01:58:18.079Z,8.81
2023-04-16T02:03:20.055Z,8.59
2023-04-16T02:08:23.574Z,8.59
2023-04-16T02:13:25.275Z,8.69
2023-04-16T02:18:27.267Z,8.62
2023-04-16T02:23:30.439Z,8.51
2023-04-16T02:28:32.371Z,8.46
2023-04-16T02:33:34.037Z,8.55
2023-04-16T02:38:37.722Z,8.56
2023-04-16T02:43:39.650Z,8.52
2023-04-16T02:48:41.973Z,8.44
2023-04-16T02:53:48.108Z,8.65
2023-04-16T02:58:49.930Z,8.52
2023-04-16T03:03:51.589Z,8.46
2023-04-16T03:08:54.574Z,8.66
2023-04-16T03:13:56.239Z,8.39
2023-04-16T03:18:57.820Z,8.58
2023-04-16T03:24:00.852Z,8.47
2023-04-16T03:29:02.566Z,8.64
2023-04-16T03:34:05.015Z,8.66
2023-04-16T03:39:08.392Z,8.75
2023-04-16T03:44:10.370Z,8.61
2023-04-16T03:49:12.198Z,8.44
2023-04-16T03:54:15.427Z,8.52
2023-04-16T03:59:17.066Z,8.33
2023-04-16T04:04:18.993Z,8.43
2023-04-16T04:09:22.194Z,8.39
2023-04-16T04:14:23.925Z,8.40
2023-04-16T04:19:25.537Z,8.15
2023-04-16T04:24:28.656Z,8.33
2023-04-16T04:29:30.359Z,8.25
2023-04-16T04:34:32.008Z,8.45
2023-04-16T04:39:35.131Z,8.23
2023-04-16T04:44:37.006Z,8.14
2023-04-16T04:49:38.614Z,8.08
2023-04-16T04:54:41.878Z,8.32
2023-04-16T04:59:43.853Z,8.34
2023-04-16T05:04:48.344Z,8.56
2023-04-16T05:09:51.442Z,8.43
2023-04-16T05:14:53.028Z,8.42
2023-04-16T05:19:54.632Z,8.41
2023-04-16T05:24:57.565Z,8.50
2023-04-16T05:29:59.608Z,8.49
2023-04-16T05:35:01.351Z,8.31
2023-04-16T05:40:05.099Z,8.49
2023-04-16T05:45:07.702Z,8.52
2023-04-16T05:50:10.330Z,8.51
2023-04-16T05:55:13.434Z,8.36
2023-04-16T06:00:15.368Z,8.36
2023-04-16T06:05:17.170Z,8.62
2023-04-16T06:10:20.291Z,8.72
2023-04-16T06:15:22.008Z,8.76
2023-04-16T06:20:24.088Z,8.53
2023-04-16T06:25:27.056Z,8.65
2023-04-16T06:30:28.777Z,8.64
2023-04-16T06:35:30.433Z,8.69
2023-04-16T06:40:33.493Z,8.80
2023-04-16T06:45:35.137Z,8.81
2023-04-16T06:50:36.856Z,8.80
2023-04-16T06:55:39.916Z,8.88
2023-04-16T07:00:41.568Z,8.91
2023-04-16T07:05:43.342Z,8.80
2023-04-16T07:10:46.584Z,8.91
2023-04-16T07:15:48.413Z,8.85
2023-04-16T07:20:50.208Z,9.02
2023-04-16T07:25:53.235Z,8.83
2023-04-16T07:30:54.939Z,8.98
2023-04-16T07:35:56.727Z,9.07
2023-04-16T07:41:00.183Z,9.06
2023-04-16T07:46:01.864Z,9.02
2023-04-16T07:51:03.808Z,9.04
2023-04-16T07:56:07.798Z,9.17
2023-04-16T08:01:09.432Z,9.14
2023-04-16T08:06:11.156Z,9.02
2023-04-16T08:11:14.549Z,9.18
2023-04-16T08:16:16.221Z,9.08
2023-04-16T08:21:17.889Z,9.39
2023-04-16T08:26:20.869Z,9.44
2023-04-16T08:31:22.667Z,9.26
2023-04-16T08:36:24.355Z,9.34
2023-04-16T08:41:30.879Z,9.36
2023-04-16T08:46:36.499Z,9.44
2023-04-16T08:51:43.317Z,9.43
2023-04-16T08:56:47.906Z,9.32
2023-04-16T09:01:49.848Z,9.30
2023-04-16T09:06:53.714Z,9.26
2023-04-16T09:11:56.776Z,9.52
2023-04-16T09:16:58.472Z,9.33
2023-04-16T09:22:01.964Z,9.46
2023-04-16T09:27:05.309Z,9.32
2023-04-16T09:32:08.757Z,9.41
2023-04-16T09:37:37.049Z,9.43
2023-04-16T09:42:40.398Z,9.41
2023-04-16T09:47:44.023Z,9.39
2023-04-16T09:52:49.312Z,9.27
2023-04-16T09:57:58.878Z,9.61
2023-04-16T10:03:13.225Z,9.57
2023-04-16T10:08:16.602Z,9.62
2023-04-16T10:13:19.605Z,9.56
2023-04-16T10:18:22.219Z,9.63
2023-04-16T10:23:23.925Z,9.93
2023-04-16T10:28:26.943Z,9.88
2023-04-16T10:33:31.268Z,9.96
2023-04-16T10:38:33.118Z,10.01
2023-04-16T10:43:40.784Z,10.12
2023-04-16T10:48:49.852Z,10.23
2023-04-16T10:53:54.108Z,10.37
2023-04-16T10:58:57.131Z,10.10
2023-04-16T11:04:00.453Z,10.49
2023-04-16T11:09:03.153Z,10.76
2023-04-16T11:14:08.623Z,10.90
2023-04-16T11:19:16.444Z,11.15
2023-04-16T11:24:18.222Z,11.16
2023-04-16T11:29:21.294Z,11.05
2023-04-16T11:34:23.061Z,10.97
2023-04-16T11:39:25.047Z,10.93
2023-04-16T11:44:28.170Z,10.97
2023-04-16T11:49:29.905Z,10.90
2023-04-16T11:54:31.882Z,10.87
2023-04-16T11:59:35.190Z,10.76
2023-04-16T12:04:36.946Z,10.80
2023-04-16T12:09:40.972Z,10.83
2023-04-16T12:14:52.169Z,10.59
2023-04-16T12:19:56.845Z,10.57
2023-04-16T12:24:59.938Z,10.69
2023-04-16T12:30:07.661Z,10.66
2023-04-16T12:35:10.281Z,10.85
2023-04-16T12:40:12.131Z,10.81
2023-04-16T12:45:15.184Z,10.88
2023-04-16T12:50:17.016Z,10.96
2023-04-16T12:55:19.253Z,10.95
2023-04-16T13:00:22.377Z,10.99
2023-04-16T13:05:24.182Z,11.01
2023-04-16T13:10:25.865Z,10.85
2023-04-16T13:15:28.860Z,10.81
2023-04-16T13:20:30.565Z,11.04
2023-04-16T13:25:32.211Z,11.20
2023-04-16T13:30:35.310Z,11.47
2023-04-16T13:35:37.052Z,11.69
2023-04-16T13:40:38.659Z,12.14
2023-04-16T13:45:41.649Z,12.02
2023-04-16T13:50:43.322Z,11.86
2023-04-16T13:55:44.985Z,11.68
2023-04-16T14:00:48.209Z,11.63
2023-04-16T14:05:49.830Z,11.82
2023-04-16T14:10:51.769Z,12.07
2023-04-16T14:15:54.999Z,12.37
2023-04-16T14:20:56.691Z,12.20
2023-04-16T14:25:58.341Z,11.84
2023-04-16T14:31:01.689Z,11.54
2023-04-16T14:36:03.744Z,11.54
2023-04-16T14:41:05.402Z,11.68
2023-04-16T14:46:08.508Z,12.00
2023-04-16T14:51:10.327Z,12.18
2023-04-16T14:56:12.137Z,12.17
2023-04-16T15:01:15.263Z,12.26
2023-04-16T15:06:17.005Z,12.39
2023-04-16T15:11:18.761Z,12.24
2023-04-16T15:16:21.930Z,12.35
2023-04-16T15:21:23.650Z,12.39
2023-04-16T15:26:25.382Z,12.30
2023-04-16T15:31:28.480Z,12.25
2023-04-16T15:36:30.130Z,12.05
2023-04-16T15:41:31.830Z,12.07
2023-04-16T15:46:34.977Z,12.00
2023-04-16T15:51:36.591Z,11.98
2023-04-16T15:56:38.369Z,11.93
2023-04-16T16:01:41.470Z,11.84
2023-04-16T16:06:43.222Z,11.86
2023-04-16T16:11:44.896Z,11.84
2023-04-16T16:16:48.289Z,11.84
2023-04-16T16:21:50.068Z,11.93
2023-04-16T16:26:51.670Z,11.96
2023-04-16T16:31:55.074Z,11.94
2023-04-16T16:36:56.733Z,11.97
2023-04-16T16:41:58.361Z,11.98
2023-04-16T16:47:01.948Z,11.87
2023-04-16T16:52:06.455Z,11.74
2023-04-16T16:57:08.294Z,11.75
2023-04-16T17:02:11.357Z,11.67
2023-04-16T17:07:12.975Z,11.62
2023-04-16T17:12:14.839Z,11.57
2023-04-16T17:17:18.101Z,11.49
2023-04-16T17:22:19.720Z,11.49
2023-04-16T17:27:21.352Z,11.54
2023-04-16T17:32:24.474Z,11.44
2023-04-16T17:37:26.267Z,11.42
2023-04-16T17:42:28.032Z,11.32
2023-04-16T17:47:31.284Z,11.17
2023-04-16T17:52:33.227Z,11.10
2023-04-16T17:57:35.365Z,11.06
2023-04-16T18:02:41.911Z,10.92
2023-04-16T18:07:49.838Z,10.93
2023-04-16T18:12:53.783Z,10.89
2023-04-16T18:18:03.686Z,10.74
2023-04-16T18:23:07.444Z,10.70
2023-04-16T18:28:09.570Z,10.67
2023-04-16T18:33:38.997Z,10.63
2023-04-16T18:38:34.352Z,10.79
2023-04-16T18:43:36.026Z,10.78
2023-04-16T18:48:39.360Z,10.75
2023-04-16T18:53:41.117Z,10.57
2023-04-16T18:58:42.752Z,10.65
2023-04-16T19:03:45.768Z,10.57
2023-04-16T19:08:47.769Z,10.55
2023-04-16T19:13:49.508Z,10.54
2023-04-16T19:18:52.567Z,10.45
2023-04-16T19:23:54.199Z,10.42
2023-04-16T19:28:55.794Z,10.37
2023-04-16T19:33:58.873Z,10.48
2023-04-16T19:39:00.643Z,10.52
2023-04-16T19:44:02.278Z,10.47
2023-04-16T19:49:05.252Z,10.49
2023-04-16T19:54:06.863Z,10.45
2023-04-16T19:59:08.679Z,10.34
2023-04-16T20:04:11.844Z,10.30
2023-04-16T20:09:13.610Z,10.19
2023-04-16T20:14:15.395Z,10.09
2023-04-16T20:19:18.445Z,10.05
2023-04-16T20:24:20.079Z,10.01
2023-04-16T20:29:21.689Z,9.93
2023-04-16T20:34:24.699Z,9.65
2023-04-16T20:39:26.336Z,9.64
2023-04-16T20:44:27.908Z,9.77
2023-04-16T20:49:33.148Z,9.78
2023-04-16T20:54:34.810Z,9.83
2023-04-16T20:59:36.392Z,9.59
2023-04-16T21:04:39.480Z,9.53
2023-04-16T21:09:41.251Z,9.52
2023-04-16T21:14:42.842Z,9.47
2023-04-16T21:19:45.912Z,9.39
2023-04-16T21:24:47.525Z,9.42
2023-04-16T21:29:49.362Z,9.46
2023-04-16T21:34:52.389Z,9.42
2023-04-16T21:39:54.075Z,9.41
2023-04-16T21:44:55.656Z,9.48
2023-04-16T21:49:58.622Z,9.41
2023-04-16T21:55:00.334Z,9.39
2023-04-16T22:00:02.399Z,9.40
2023-04-16T22:05:06.142Z,9.44
2023-04-16T22:10:09.117Z,9.35
2023-04-16T22:15:11.166Z,9.39
2023-04-16T22:20:14.558Z,9.37
2023-04-16T22:25:16.167Z,9.35
2023-04-16T22:30:17.860Z,9.30
2023-04-16T22:35:20.866Z,9.36
2023-04-16T22:40:22.489Z,9.34
2023-04-16T22:45:24.119Z,9.28
2023-04-16T22:50:27.672Z,9.28
2023-04-16T22:55:29.297Z,9.27
2023-04-16T23:00:30.998Z,9.34
2023-04-16T23:05:34.725Z,9.31
2023-04-16T23:10:36.872Z,9.35
2023-04-16T23:15:39.198Z,9.26
2023-04-16T23:20:42.247Z,9.19
2023-04-16T23:25:43.947Z,9.18
2023-04-16T23:30:46.751Z,9.17
2023-04-16T23:35:49.766Z,9.14
2023-04-16T23:40:51.392Z,9.11
2023-04-16T23:45:53.120Z,9.06
2023-04-16T23:50:56.142Z,9.00
2023-04-16T23:55:57.769Z,9.07
